Airfield :
LOGIN :

Register | Disclaimer

   EN    FR    IT 

 










Legend :    VFR   Marginal VFR   IFR   Intensive IFR   Very Intensive IFR
Visi :
Ceiling :
>= 8 km
>= 3000ft
5 to 8 km
1000 to 3000 ft
1500m to 5 km
500 to 1000 ft
800 to 1500m
200 to 500 ft
< 800m
< 200 ft
Symbols :   Thunderstorms  Fog  Heavy snow  Heavy precipitations  Wind > 20 kt
SIGMETs :     Misc.  Thunderstorms  Icing  Turbulence  Mountain Waves  Volcanic Ashes







- Airport Elevation : 302 ft
- Download approach charts


LFPM - Melun Villaroche

CURRENT METAR :
  • 231600Z AUTO 25013KT 220V280 CAVOK 20/10 Q1015

EXPIRED METARs :
  • 231530Z AUTO 27011KT CAVOK 21/09 Q1015
  • 231500Z AUTO 26014KT CAVOK 20/09 Q1016
  • 231430Z AUTO 26014KT 220V290 CAVOK 21/09 Q1016
  • 231400Z AUTO 27012KT CAVOK 21/10 Q1016
  • 231330Z AUTO 28011KT CAVOK 21/10 Q1016

Expired Forecast.
ATIS : +33 1 64 14 28 44
No reported NOTAMs for that airfield.



MET'MAP, your aeronautical weather chart ! - Copyright ORBIFLY December 2007 - Disclaimer

ORBIFLY MET'MAP TEAM :

Programming & Development : Alexandra Zaïnal
Concept & Development : Baudouin d'Aumeries
Co-Development & Prog : Marc-Olivier Méhu
Technical & hardware support : Manuel Goepfert

Contact : metmap@orbifly.com




SOURCES & CREDITS :

   NOAA